createdAt,value
2022-09-26T00:00:09.757Z,13.38
2022-09-26T00:03:14.077Z,13.42
2022-09-26T00:06:18.912Z,13.42
2022-09-26T00:09:25.045Z,13.41
2022-09-26T00:12:29.188Z,13.39
2022-09-26T00:15:33.301Z,13.41
2022-09-26T00:18:37.345Z,13.39
2022-09-26T00:21:41.493Z,13.40
2022-09-26T00:24:45.525Z,13.35
2022-09-26T00:27:49.526Z,13.31
2022-09-26T00:30:54.660Z,13.28
2022-09-26T00:33:59.116Z,13.28
2022-09-26T00:37:03.184Z,13.28
2022-09-26T00:40:08.071Z,13.28
2022-09-26T00:43:33.700Z,13.23
2022-09-26T00:46:41.634Z,13.21
2022-09-26T00:49:48.294Z,13.22
2022-09-26T00:52:56.500Z,13.22
2022-09-26T00:56:06.204Z,13.22
2022-09-26T00:59:24.674Z,13.22
2022-09-26T01:02:28.727Z,13.21
2022-09-26T01:05:33.961Z,13.23
2022-09-26T01:08:51.112Z,13.22
2022-09-26T01:11:55.440Z,13.22
2022-09-26T01:14:59.726Z,13.24
2022-09-26T01:18:04.004Z,13.25
2022-09-26T01:21:45.534Z,13.17
2022-09-26T01:25:26.694Z,13.17
2022-09-26T01:28:36.958Z,13.15
2022-09-26T01:32:06.697Z,13.16
2022-09-26T01:35:21.155Z,13.18
2022-09-26T01:38:35.685Z,13.19
2022-09-26T01:41:47.346Z,13.24
2022-09-26T01:45:05.018Z,13.22
2022-09-26T01:48:18.543Z,13.19
2022-09-26T01:51:26.144Z,13.19
2022-09-26T01:54:41.873Z,13.26
2022-09-26T01:57:55.072Z,13.23
2022-09-26T02:01:02.983Z,13.23
2022-09-26T02:04:10.806Z,13.18
2022-09-26T02:07:20.645Z,13.23
2022-09-26T02:10:42.493Z,13.22
2022-09-26T02:13:55.574Z,13.21
2022-09-26T02:17:13.024Z,13.17
2022-09-26T02:20:28.850Z,13.16
2022-09-26T02:23:32.967Z,13.17
2022-09-26T02:26:37.378Z,13.22
2022-09-26T02:29:43.633Z,13.24
2022-09-26T02:32:48.256Z,13.27
2022-09-26T02:35:55.236Z,13.25
2022-09-26T02:38:59.627Z,13.15
2022-09-26T02:42:22.034Z,13.14
2022-09-26T02:45:42.309Z,13.04
2022-09-26T02:49:21.623Z,12.99
2022-09-26T02:52:53.740Z,12.97
2022-09-26T02:56:10.838Z,12.97
2022-09-26T02:59:35.902Z,13.02
2022-09-26T03:03:23.599Z,13.01
2022-09-26T03:06:35.031Z,12.99
2022-09-26T03:09:41.757Z,13.02
2022-09-26T03:12:45.904Z,13.00
2022-09-26T03:15:54.890Z,13.00
2022-09-26T03:19:05.747Z,13.01
2022-09-26T03:22:09.801Z,12.98
2022-09-26T03:25:18.523Z,12.99
2022-09-26T03:28:22.879Z,12.98
2022-09-26T03:31:27.144Z,12.98
2022-09-26T03:34:31.508Z,13.01
2022-09-26T03:37:37.357Z,12.98
2022-09-26T03:40:42.584Z,13.01
2022-09-26T03:43:46.446Z,12.99
2022-09-26T03:46:50.200Z,12.98
2022-09-26T03:49:54.559Z,12.99
2022-09-26T03:52:58.653Z,13.01
2022-09-26T03:56:11.435Z,12.99
2022-09-26T03:59:15.606Z,12.98
2022-09-26T04:02:20.812Z,12.99
2022-09-26T04:05:24.602Z,12.93
2022-09-26T04:08:28.787Z,12.92
2022-09-26T04:11:32.879Z,12.92
2022-09-26T04:14:37.310Z,12.90
2022-09-26T04:17:41.625Z,12.86
2022-09-26T04:20:45.640Z,12.77
2022-09-26T04:23:50.285Z,12.72
2022-09-26T04:26:54.352Z,12.67
2022-09-26T04:29:58.527Z,12.60
2022-09-26T04:33:02.586Z,12.57
2022-09-26T04:36:12.090Z,12.47
2022-09-26T04:39:15.951Z,12.45
2022-09-26T04:42:19.727Z,12.39
2022-09-26T04:45:23.622Z,12.34
2022-09-26T04:48:28.629Z,12.30
2022-09-26T04:51:32.814Z,12.28
2022-09-26T04:54:37.402Z,12.22
2022-09-26T04:57:41.136Z,12.11
2022-09-26T05:00:47.662Z,12.12
2022-09-26T05:03:52.045Z,12.14
2022-09-26T05:06:57.584Z,12.16
2022-09-26T05:10:01.530Z,12.15
2022-09-26T05:13:06.059Z,12.14
2022-09-26T05:16:11.478Z,12.09
2022-09-26T05:19:15.418Z,12.07
2022-09-26T05:22:19.640Z,12.07
2022-09-26T05:25:42.779Z,12.04
2022-09-26T05:28:53.839Z,12.00
2022-09-26T05:31:57.751Z,12.01
2022-09-26T05:35:05.255Z,12.00
2022-09-26T05:38:09.471Z,11.99
2022-09-26T05:41:14.250Z,11.99
2022-09-26T05:44:18.329Z,11.97
2022-09-26T05:47:23.109Z,12.00
2022-09-26T05:50:27.228Z,11.98
2022-09-26T05:53:34.559Z,11.98
2022-09-26T05:56:39.000Z,11.96
2022-09-26T05:59:43.009Z,11.98
2022-09-26T06:02:54.360Z,11.96
2022-09-26T06:06:01.676Z,11.95
2022-09-26T06:09:07.550Z,11.97
2022-09-26T06:12:11.522Z,11.94
2022-09-26T06:15:15.817Z,11.95
2022-09-26T06:18:19.798Z,11.97
2022-09-26T06:21:24.107Z,12.00
2022-09-26T06:24:27.918Z,12.04
2022-09-26T06:27:36.208Z,12.07
2022-09-26T06:30:40.078Z,12.14
2022-09-26T06:33:49.938Z,12.14
2022-09-26T06:36:53.952Z,12.16
2022-09-26T06:39:59.544Z,12.19
2022-09-26T06:43:04.072Z,12.21
2022-09-26T06:46:09.533Z,12.34
2022-09-26T06:49:13.583Z,12.59
2022-09-26T06:52:17.596Z,12.90
2022-09-26T06:55:22.439Z,13.03
2022-09-26T06:58:27.708Z,12.98
2022-09-26T07:01:32.957Z,12.96
2022-09-26T07:04:36.935Z,13.01
2022-09-26T07:07:46.659Z,12.96
2022-09-26T07:10:51.617Z,12.99
2022-09-26T07:13:55.703Z,12.98
2022-09-26T07:16:59.620Z,13.04
2022-09-26T07:20:04.009Z,13.09
2022-09-26T07:23:10.596Z,13.24
2022-09-26T07:26:15.053Z,13.22
2022-09-26T07:29:19.437Z,13.25
2022-09-26T07:32:24.242Z,13.33
2022-09-26T07:35:28.731Z,13.55
2022-09-26T07:38:32.512Z,13.92
2022-09-26T07:41:36.724Z,13.88
2022-09-26T07:45:17.481Z,13.83
2022-09-26T07:48:23.243Z,13.82
2022-09-26T07:51:27.582Z,13.85
2022-09-26T07:54:32.197Z,13.93
2022-09-26T07:57:35.980Z,13.98
2022-09-26T08:00:40.275Z,14.09
2022-09-26T08:03:48.084Z,14.45
2022-09-26T08:06:53.544Z,14.79
2022-09-26T08:09:58.993Z,14.99
2022-09-26T08:13:03.371Z,15.04
2022-09-26T08:16:07.609Z,15.03
2022-09-26T08:19:17.483Z,14.97
2022-09-26T08:22:21.687Z,14.91
2022-09-26T08:25:26.035Z,14.86
2022-09-26T08:28:30.396Z,14.85
2022-09-26T08:31:35.071Z,14.85
2022-09-26T08:34:40.900Z,14.86
2022-09-26T08:37:44.897Z,14.86
2022-09-26T08:40:56.260Z,14.95
2022-09-26T08:44:38.161Z,15.13
2022-09-26T08:47:50.425Z,15.19
2022-09-26T08:51:07.012Z,15.37
2022-09-26T08:54:14.699Z,15.38
2022-09-26T08:57:38.132Z,15.39
2022-09-26T09:00:42.358Z,15.48
2022-09-26T09:03:55.346Z,15.59
2022-09-26T09:07:10.741Z,15.65
2022-09-26T09:10:22.741Z,15.77
2022-09-26T09:13:46.035Z,15.83
2022-09-26T09:16:57.990Z,15.83
2022-09-26T09:20:37.644Z,15.82
2022-09-26T09:24:00.518Z,15.89
2022-09-26T09:31:06.596Z,16.08
2022-09-26T09:34:21.052Z,16.13
2022-09-26T09:37:33.513Z,16.14
2022-09-26T09:40:43.272Z,16.22
2022-09-26T09:43:48.416Z,16.30
2022-09-26T09:46:52.517Z,16.36
2022-09-26T09:49:57.611Z,16.36
2022-09-26T09:53:31.969Z,16.37
2022-09-26T09:57:11.177Z,16.54
2022-09-26T10:00:24.001Z,16.55
2022-09-26T10:03:47.805Z,16.48
2022-09-26T10:06:52.579Z,16.57
2022-09-26T10:09:56.964Z,16.66
2022-09-26T10:13:01.204Z,16.74
2022-09-26T10:16:07.386Z,16.75
2022-09-26T10:19:12.315Z,17.02
2022-09-26T10:22:44.037Z,17.08
2022-09-26T10:25:50.348Z,17.07
2022-09-26T10:28:55.931Z,17.11
2022-09-26T10:32:00.691Z,17.09
2022-09-26T10:35:19.865Z,16.92
2022-09-26T10:38:27.769Z,16.76
2022-09-26T10:41:39.416Z,16.76
2022-09-26T10:44:43.213Z,16.87
2022-09-26T10:47:51.892Z,16.93
2022-09-26T10:51:00.624Z,16.95
2022-09-26T10:54:11.601Z,17.00
2022-09-26T10:57:23.108Z,16.93
2022-09-26T11:00:42.827Z,17.05
2022-09-26T11:03:47.391Z,17.26
2022-09-26T11:06:51.501Z,17.49
2022-09-26T11:10:02.947Z,17.95
2022-09-26T11:13:19.306Z,18.05
2022-09-26T11:16:24.001Z,18.06
2022-09-26T11:19:31.558Z,17.83
2022-09-26T11:22:47.434Z,17.91
2022-09-26T11:26:09.451Z,17.78
2022-09-26T11:29:36.658Z,17.63
2022-09-26T11:32:44.880Z,17.56
2022-09-26T11:35:58.245Z,17.25
2022-09-26T11:39:21.061Z,17.11
2022-09-26T11:42:56.145Z,17.03
2022-09-26T11:46:21.927Z,16.94
2022-09-26T11:50:01.659Z,16.78
2022-09-26T11:53:34.862Z,16.76
2022-09-26T11:57:02.136Z,16.66
2022-09-26T12:00:26.561Z,16.66
2022-09-26T12:03:50.106Z,16.75
2022-09-26T12:07:07.404Z,16.98
2022-09-26T12:10:20.554Z,17.09
2022-09-26T12:13:34.155Z,17.19
2022-09-26T12:16:55.134Z,17.42
2022-09-26T12:20:33.618Z,17.65
2022-09-26T12:23:45.564Z,17.88
2022-09-26T12:27:06.783Z,18.06
2022-09-26T12:30:15.903Z,17.99
2022-09-26T12:34:02.372Z,17.99
2022-09-26T12:37:42.687Z,17.70
2022-09-26T12:41:04.220Z,17.35
2022-09-26T12:44:41.117Z,17.28
2022-09-26T12:48:08.128Z,17.32
2022-09-26T12:51:38.208Z,17.21
2022-09-26T12:54:57.319Z,17.20
2022-09-26T12:58:19.328Z,17.21
2022-09-26T13:01:53.496Z,17.32
2022-09-26T13:05:41.800Z,17.32
2022-09-26T13:09:04.462Z,17.29
2022-09-26T13:12:46.044Z,17.27
2022-09-26T13:16:05.050Z,17.13
2022-09-26T13:19:33.033Z,17.06
2022-09-26T13:22:52.493Z,16.90
2022-09-26T13:26:09.868Z,16.76
2022-09-26T13:29:27.961Z,16.70
2022-09-26T13:32:47.678Z,16.66
2022-09-26T13:35:56.235Z,16.74
2022-09-26T13:39:07.955Z,17.07
2022-09-26T13:42:28.440Z,17.43
2022-09-26T13:45:49.014Z,17.45
2022-09-26T13:49:17.621Z,17.36
2022-09-26T13:52:52.542Z,17.11
2022-09-26T13:56:30.262Z,17.00
2022-09-26T13:59:51.489Z,17.15
2022-09-26T14:03:10.876Z,17.39
2022-09-26T14:06:28.193Z,17.54
2022-09-26T14:09:52.586Z,17.62
2022-09-26T14:13:34.225Z,17.40
2022-09-26T14:16:38.358Z,17.28
2022-09-26T14:19:48.673Z,17.23
2022-09-26T14:22:57.701Z,17.11
2022-09-26T14:26:10.613Z,17.06
2022-09-26T14:29:29.870Z,16.90
2022-09-26T14:32:45.054Z,16.83
2022-09-26T14:35:48.935Z,16.70
2022-09-26T14:38:54.654Z,16.65
2022-09-26T14:42:07.992Z,16.70
2022-09-26T14:45:41.380Z,16.69
2022-09-26T14:48:46.290Z,16.76
2022-09-26T14:51:59.371Z,16.97
2022-09-26T14:55:06.161Z,16.87
2022-09-26T14:58:28.438Z,16.80
2022-09-26T15:01:38.193Z,16.77
2022-09-26T15:04:43.882Z,16.57
2022-09-26T15:07:53.411Z,16.52
2022-09-26T15:10:59.175Z,16.53
2022-09-26T15:14:31.022Z,16.38
2022-09-26T15:17:40.966Z,16.37
2022-09-26T15:20:52.023Z,16.23
2022-09-26T15:23:57.318Z,16.10
2022-09-26T15:27:19.403Z,16.06
2022-09-26T15:30:32.053Z,16.03
2022-09-26T15:33:39.093Z,15.86
2022-09-26T15:36:44.969Z,15.86
2022-09-26T15:39:49.649Z,15.74
2022-09-26T15:43:09.136Z,15.69
2022-09-26T15:46:23.429Z,15.74
2022-09-26T15:49:28.631Z,15.64
2022-09-26T15:52:35.167Z,15.50
2022-09-26T15:56:01.601Z,15.62
2022-09-26T15:59:29.376Z,15.53
2022-09-26T16:02:36.489Z,15.35
2022-09-26T16:05:45.493Z,15.35
2022-09-26T16:08:58.046Z,15.38
2022-09-26T16:12:10.381Z,15.28
2022-09-26T16:15:19.568Z,15.33
2022-09-26T16:18:25.563Z,15.31
2022-09-26T16:21:33.772Z,15.25
2022-09-26T16:24:37.882Z,15.11
2022-09-26T16:27:43.008Z,15.10
2022-09-26T16:30:58.553Z,15.11
2022-09-26T16:34:02.970Z,15.02
2022-09-26T16:37:17.293Z,14.98
2022-09-26T16:40:21.569Z,14.95
2022-09-26T16:43:33.658Z,14.94
2022-09-26T16:46:39.105Z,14.84
2022-09-26T16:49:48.369Z,14.78
2022-09-26T16:52:54.199Z,14.67
2022-09-26T16:55:58.734Z,14.67
2022-09-26T16:59:05.264Z,14.60
2022-09-26T17:02:09.821Z,14.55
2022-09-26T17:05:22.750Z,14.51
2022-09-26T17:08:27.626Z,14.49
2022-09-26T17:11:32.195Z,14.50
2022-09-26T17:14:40.756Z,14.45
2022-09-26T17:17:45.685Z,14.40
2022-09-26T17:20:50.261Z,14.35
2022-09-26T17:23:54.299Z,14.34
2022-09-26T17:27:04.674Z,14.27
2022-09-26T17:30:17.524Z,14.26
2022-09-26T17:33:29.696Z,14.19
2022-09-26T17:36:33.974Z,14.19
2022-09-26T17:39:37.979Z,14.17
2022-09-26T17:42:42.148Z,14.09
2022-09-26T17:45:51.702Z,14.07
2022-09-26T17:48:56.383Z,14.03
2022-09-26T17:52:03.423Z,14.03
2022-09-26T17:55:10.811Z,14.16
2022-09-26T17:58:16.160Z,14.27
2022-09-26T18:01:27.824Z,14.35
2022-09-26T18:04:32.957Z,14.38
2022-09-26T18:07:41.406Z,14.44
2022-09-26T18:10:57.370Z,14.40
2022-09-26T18:14:03.452Z,14.38
2022-09-26T18:17:16.233Z,14.32
2022-09-26T18:20:23.538Z,14.38
2022-09-26T18:23:41.705Z,14.36
2022-09-26T18:26:50.382Z,14.35
2022-09-26T18:29:55.351Z,14.24
2022-09-26T18:33:00.155Z,14.18
2022-09-26T18:36:05.172Z,14.16
2022-09-26T18:39:10.471Z,14.15
2022-09-26T18:42:22.422Z,14.12
2022-09-26T18:45:36.808Z,14.07
2022-09-26T18:48:41.678Z,14.10
2022-09-26T18:51:46.303Z,14.06
2022-09-26T18:55:10.224Z,14.15
2022-09-26T18:58:25.241Z,14.11
2022-09-26T19:01:38.035Z,14.11
2022-09-26T19:04:42.626Z,14.10
2022-09-26T19:07:47.426Z,14.11
2022-09-26T19:10:51.599Z,14.18
2022-09-26T19:13:57.943Z,14.22
2022-09-26T19:17:02.158Z,14.22
2022-09-26T19:20:06.738Z,14.12
2022-09-26T19:23:12.122Z,14.14
2022-09-26T19:26:27.376Z,14.13
2022-09-26T19:29:44.718Z,14.20
2022-09-26T19:32:51.791Z,14.21
2022-09-26T19:35:56.176Z,14.12
2022-09-26T19:39:00.310Z,14.14
2022-09-26T19:42:04.424Z,14.04
2022-09-26T19:45:10.632Z,13.97
2022-09-26T19:48:20.908Z,13.97
2022-09-26T19:51:24.998Z,14.00
2022-09-26T19:54:30.001Z,13.95
2022-09-26T19:57:33.989Z,13.96
2022-09-26T20:00:41.514Z,14.01
2022-09-26T20:03:46.047Z,14.11
2022-09-26T20:06:50.286Z,14.10
2022-09-26T20:09:54.774Z,14.03
2022-09-26T20:12:58.608Z,14.05
2022-09-26T20:16:02.872Z,14.03
2022-09-26T20:19:10.305Z,13.95
2022-09-26T20:22:17.567Z,13.92
2022-09-26T20:25:27.854Z,13.92
2022-09-26T20:28:32.228Z,13.98
2022-09-26T20:31:36.539Z,13.92
2022-09-26T20:34:40.480Z,13.97
2022-09-26T20:37:44.779Z,14.00
2022-09-26T20:40:50.513Z,14.02
2022-09-26T20:44:01.783Z,13.93
2022-09-26T20:47:06.509Z,13.88
2022-09-26T20:50:16.249Z,13.81
2022-09-26T20:53:23.280Z,13.89
2022-09-26T20:56:28.323Z,13.97
2022-09-26T20:59:34.961Z,13.89
2022-09-26T21:02:39.749Z,13.89
2022-09-26T21:05:44.454Z,13.94
2022-09-26T21:08:48.383Z,13.85
2022-09-26T21:11:52.508Z,13.74
2022-09-26T21:14:56.671Z,13.73
2022-09-26T21:18:02.144Z,13.76
2022-09-26T21:21:13.048Z,13.73
2022-09-26T21:24:24.739Z,13.74
2022-09-26T21:27:29.283Z,13.73
2022-09-26T21:30:34.076Z,13.71
2022-09-26T21:33:38.811Z,13.71
2022-09-26T21:36:43.219Z,13.67
2022-09-26T21:39:47.429Z,13.68
2022-09-26T21:42:57.235Z,13.60
2022-09-26T21:46:01.226Z,13.66
2022-09-26T21:49:05.203Z,13.68
2022-09-26T21:52:34.273Z,13.69
2022-09-26T21:55:43.197Z,13.63
2022-09-26T21:58:49.000Z,13.65
2022-09-26T22:01:53.021Z,13.66
2022-09-26T22:04:57.500Z,13.67
2022-09-26T22:08:02.011Z,13.64
2022-09-26T22:11:09.037Z,13.57
2022-09-26T22:14:14.068Z,13.57
2022-09-26T22:17:18.630Z,13.52
2022-09-26T22:20:22.758Z,13.59
2022-09-26T22:23:27.111Z,13.63
2022-09-26T22:26:31.622Z,13.66
2022-09-26T22:29:35.615Z,13.64
2022-09-26T22:32:40.150Z,13.58
2022-09-26T22:35:49.223Z,13.63
2022-09-26T22:38:54.774Z,13.61
2022-09-26T22:41:58.835Z,13.57
2022-09-26T22:45:03.187Z,13.61
2022-09-26T22:48:07.676Z,13.64
2022-09-26T22:51:13.516Z,13.64
2022-09-26T22:54:17.721Z,13.64
2022-09-26T22:57:22.014Z,13.61
2022-09-26T23:00:26.140Z,13.62
2022-09-26T23:03:30.038Z,13.63
2022-09-26T23:06:34.217Z,13.56
2022-09-26T23:09:38.605Z,13.55
2022-09-26T23:12:42.542Z,13.55
2022-09-26T23:15:46.564Z,13.53
2022-09-26T23:18:51.682Z,13.43
2022-09-26T23:21:55.777Z,13.50
2022-09-26T23:24:59.849Z,13.45
2022-09-26T23:28:04.305Z,13.43
2022-09-26T23:31:10.942Z,13.37
2022-09-26T23:34:15.089Z,13.34
2022-09-26T23:37:19.166Z,13.33
2022-09-26T23:40:23.321Z,13.25
2022-09-26T23:43:27.688Z,13.32
2022-09-26T23:46:32.170Z,13.31
2022-09-26T23:49:36.129Z,13.25
2022-09-26T23:52:40.560Z,13.18
2022-09-26T23:55:44.805Z,13.15
2022-09-26T23:58:48.990Z,13.22
